sensor_id;sensor_type;location;lat;lon;timestamp;temperature;humidity
45409;DHT22;31162;51.076;3.784;2022-07-22T00:00:20;16.60;99.90
45409;DHT22;31162;51.076;3.784;2022-07-22T00:02:45;16.60;99.90
45409;DHT22;31162;51.076;3.784;2022-07-22T00:05:11;16.60;99.90
45409;DHT22;31162;51.076;3.784;2022-07-22T00:07:38;16.50;99.90
45409;DHT22;31162;51.076;3.784;2022-07-22T00:10:06;16.50;99.90
45409;DHT22;31162;51.076;3.784;2022-07-22T00:12:32;16.50;99.90
45409;DHT22;31162;51.076;3.784;2022-07-22T00:14:58;16.30;99.90
45409;DHT22;31162;51.076;3.784;2022-07-22T00:17:23;16.40;99.90
45409;DHT22;31162;51.076;3.784;2022-07-22T00:19:49;16.50;99.90
45409;DHT22;31162;51.076;3.784;2022-07-22T00:22:14;16.40;99.90
45409;DHT22;31162;51.076;3.784;2022-07-22T00:24:40;16.40;99.90
45409;DHT22;31162;51.076;3.784;2022-07-22T00:27:06;16.40;99.90
45409;DHT22;31162;51.076;3.784;2022-07-22T00:29:31;16.30;99.90
45409;DHT22;31162;51.076;3.784;2022-07-22T00:31:57;16.30;99.90
45409;DHT22;31162;51.076;3.784;2022-07-22T00:34:23;16.20;99.90
45409;DHT22;31162;51.076;3.784;2022-07-22T00:36:48;16.10;99.90
45409;DHT22;31162;51.076;3.784;2022-07-22T00:39:14;16.00;99.90
45409;DHT22;31162;51.076;3.784;2022-07-22T00:41:40;15.90;99.90
45409;DHT22;31162;51.076;3.784;2022-07-22T00:44:08;15.90;99.90
45409;DHT22;31162;51.076;3.784;2022-07-22T00:46:36;15.80;99.90
45409;DHT22;31162;51.076;3.784;2022-07-22T00:49:04;15.70;99.90
45409;DHT22;31162;51.076;3.784;2022-07-22T00:51:30;15.70;99.90
45409;DHT22;31162;51.076;3.784;2022-07-22T00:53:56;15.60;99.90
45409;DHT22;31162;51.076;3.784;2022-07-22T00:56:23;15.60;99.90
45409;DHT22;31162;51.076;3.784;2022-07-22T00:58:51;15.60;99.90
45409;DHT22;31162;51.076;3.784;2022-07-22T01:01:17;15.60;99.90
45409;DHT22;31162;51.076;3.784;2022-07-22T01:03:43;15.60;99.90
45409;DHT22;31162;51.076;3.784;2022-07-22T01:06:08;15.70;99.90
45409;DHT22;31162;51.076;3.784;2022-07-22T01:08:35;15.70;99.90
45409;DHT22;31162;51.076;3.784;2022-07-22T01:11:08;15.80;99.90
45409;DHT22;31162;51.076;3.784;2022-07-22T01:13:35;15.70;99.90
45409;DHT22;31162;51.076;3.784;2022-07-22T01:16:00;15.60;99.90
45409;DHT22;31162;51.076;3.784;2022-07-22T01:18:26;15.60;99.90
45409;DHT22;31162;51.076;3.784;2022-07-22T01:20:51;15.70;99.90
45409;DHT22;31162;51.076;3.784;2022-07-22T01:23:17;15.60;99.90
45409;DHT22;31162;51.076;3.784;2022-07-22T01:25:43;15.60;99.90
45409;DHT22;31162;51.076;3.784;2022-07-22T01:28:08;15.50;99.90
45409;DHT22;31162;51.076;3.784;2022-07-22T01:30:34;15.50;99.90
45409;DHT22;31162;51.076;3.784;2022-07-22T01:33:00;15.40;99.90
45409;DHT22;31162;51.076;3.784;2022-07-22T01:35:25;15.40;99.90
45409;DHT22;31162;51.076;3.784;2022-07-22T01:37:51;15.40;99.90
45409;DHT22;31162;51.076;3.784;2022-07-22T01:40:17;15.40;99.90
45409;DHT22;31162;51.076;3.784;2022-07-22T01:42:42;15.40;99.90
45409;DHT22;31162;51.076;3.784;2022-07-22T01:45:08;15.40;99.90
45409;DHT22;31162;51.076;3.784;2022-07-22T01:47:34;15.40;99.90
45409;DHT22;31162;51.076;3.784;2022-07-22T01:50:00;15.30;99.90
45409;DHT22;31162;51.076;3.784;2022-07-22T01:52:26;15.40;99.90
45409;DHT22;31162;51.076;3.784;2022-07-22T01:54:51;15.40;99.90
45409;DHT22;31162;51.076;3.784;2022-07-22T01:57:17;15.30;99.90
45409;DHT22;31162;51.076;3.784;2022-07-22T01:59:43;15.30;99.90
45409;DHT22;31162;51.076;3.784;2022-07-22T02:02:08;15.40;99.90
45409;DHT22;31162;51.076;3.784;2022-07-22T02:04:34;15.40;99.90
45409;DHT22;31162;51.076;3.784;2022-07-22T02:06:59;15.40;99.90
45409;DHT22;31162;51.076;3.784;2022-07-22T02:09:25;15.40;99.90
45409;DHT22;31162;51.076;3.784;2022-07-22T02:11:51;15.40;99.90
45409;DHT22;31162;51.076;3.784;2022-07-22T02:14:17;15.40;99.90
45409;DHT22;31162;51.076;3.784;2022-07-22T02:16:43;15.40;99.90
45409;DHT22;31162;51.076;3.784;2022-07-22T02:19:09;15.50;99.90
45409;DHT22;31162;51.076;3.784;2022-07-22T02:21:35;15.60;99.90
45409;DHT22;31162;51.076;3.784;2022-07-22T02:24:02;15.60;99.90
45409;DHT22;31162;51.076;3.784;2022-07-22T02:26:27;15.60;99.90
45409;DHT22;31162;51.076;3.784;2022-07-22T02:28:53;15.50;99.90
45409;DHT22;31162;51.076;3.784;2022-07-22T02:31:19;15.50;99.90
45409;DHT22;31162;51.076;3.784;2022-07-22T02:33:46;15.50;99.90
45409;DHT22;31162;51.076;3.784;2022-07-22T02:36:12;15.40;99.90
45409;DHT22;31162;51.076;3.784;2022-07-22T02:38:38;15.40;99.90
45409;DHT22;31162;51.076;3.784;2022-07-22T02:41:04;15.20;99.90
45409;DHT22;31162;51.076;3.784;2022-07-22T02:43:30;15.10;99.90
45409;DHT22;31162;51.076;3.784;2022-07-22T02:45:55;15.10;99.90
45409;DHT22;31162;51.076;3.784;2022-07-22T02:48:21;15.30;99.90
45409;DHT22;31162;51.076;3.784;2022-07-22T02:50:47;15.20;99.90
45409;DHT22;31162;51.076;3.784;2022-07-22T02:53:13;15.20;99.90
45409;DHT22;31162;51.076;3.784;2022-07-22T02:55:39;15.10;99.90
45409;DHT22;31162;51.076;3.784;2022-07-22T02:58:09;15.00;99.90
45409;DHT22;31162;51.076;3.784;2022-07-22T03:00:36;15.00;99.90
45409;DHT22;31162;51.076;3.784;2022-07-22T03:03:03;15.00;99.90
45409;DHT22;31162;51.076;3.784;2022-07-22T03:05:29;15.00;99.90
45409;DHT22;31162;51.076;3.784;2022-07-22T03:07:55;15.20;99.90
45409;DHT22;31162;51.076;3.784;2022-07-22T03:10:21;15.10;99.90
45409;DHT22;31162;51.076;3.784;2022-07-22T03:12:46;15.10;99.90
45409;DHT22;31162;51.076;3.784;2022-07-22T03:15:12;15.10;99.90
45409;DHT22;31162;51.076;3.784;2022-07-22T03:17:38;15.10;99.90
45409;DHT22;31162;51.076;3.784;2022-07-22T03:20:05;15.10;99.90
45409;DHT22;31162;51.076;3.784;2022-07-22T03:22:31;15.10;99.90
45409;DHT22;31162;51.076;3.784;2022-07-22T03:24:56;15.10;99.90
45409;DHT22;31162;51.076;3.784;2022-07-22T03:27:22;15.10;99.90
45409;DHT22;31162;51.076;3.784;2022-07-22T03:29:48;15.00;99.90
45409;DHT22;31162;51.076;3.784;2022-07-22T03:32:14;14.90;99.90
45409;DHT22;31162;51.076;3.784;2022-07-22T03:34:40;14.80;99.90
45409;DHT22;31162;51.076;3.784;2022-07-22T03:37:05;14.70;99.90
45409;DHT22;31162;51.076;3.784;2022-07-22T03:39:31;14.70;99.90
45409;DHT22;31162;51.076;3.784;2022-07-22T03:41:57;14.80;99.90
45409;DHT22;31162;51.076;3.784;2022-07-22T03:44:22;14.80;99.90
45409;DHT22;31162;51.076;3.784;2022-07-22T03:46:48;14.70;99.90
45409;DHT22;31162;51.076;3.784;2022-07-22T03:49:13;14.70;99.90
45409;DHT22;31162;51.076;3.784;2022-07-22T03:51:39;14.80;99.90
45409;DHT22;31162;51.076;3.784;2022-07-22T03:54:05;14.80;99.90
45409;DHT22;31162;51.076;3.784;2022-07-22T03:56:33;14.80;99.90
45409;DHT22;31162;51.076;3.784;2022-07-22T03:59:03;14.80;99.90
45409;DHT22;31162;51.076;3.784;2022-07-22T04:01:29;14.80;99.90
45409;DHT22;31162;51.076;3.784;2022-07-22T04:03:56;14.80;99.90
45409;DHT22;31162;51.076;3.784;2022-07-22T04:06:22;14.80;99.90
45409;DHT22;31162;51.076;3.784;2022-07-22T04:08:50;14.80;99.90
45409;DHT22;31162;51.076;3.784;2022-07-22T04:11:15;14.80;99.90
45409;DHT22;31162;51.076;3.784;2022-07-22T04:13:41;14.90;99.90
45409;DHT22;31162;51.076;3.784;2022-07-22T04:16:07;15.10;99.90
45409;DHT22;31162;51.076;3.784;2022-07-22T04:18:33;15.30;99.90
45409;DHT22;31162;51.076;3.784;2022-07-22T04:20:59;15.40;99.90
45409;DHT22;31162;51.076;3.784;2022-07-22T04:23:25;15.40;99.90
45409;DHT22;31162;51.076;3.784;2022-07-22T04:25:51;15.50;99.90
45409;DHT22;31162;51.076;3.784;2022-07-22T04:28:16;15.70;99.90
45409;DHT22;31162;51.076;3.784;2022-07-22T04:30:42;15.80;99.90
45409;DHT22;31162;51.076;3.784;2022-07-22T04:33:08;15.90;99.90
45409;DHT22;31162;51.076;3.784;2022-07-22T04:35:33;16.10;99.90
45409;DHT22;31162;51.076;3.784;2022-07-22T04:37:59;16.20;99.90
45409;DHT22;31162;51.076;3.784;2022-07-22T04:40:25;16.30;99.90
45409;DHT22;31162;51.076;3.784;2022-07-22T04:42:51;16.40;99.90
45409;DHT22;31162;51.076;3.784;2022-07-22T04:45:16;16.60;99.90
45409;DHT22;31162;51.076;3.784;2022-07-22T04:47:42;16.70;99.90
45409;DHT22;31162;51.076;3.784;2022-07-22T04:50:08;16.90;99.90
45409;DHT22;31162;51.076;3.784;2022-07-22T04:52:34;17.00;99.90
45409;DHT22;31162;51.076;3.784;2022-07-22T04:55:00;17.10;99.90
45409;DHT22;31162;51.076;3.784;2022-07-22T04:57:26;17.10;99.90
45409;DHT22;31162;51.076;3.784;2022-07-22T04:59:52;17.30;99.90
45409;DHT22;31162;51.076;3.784;2022-07-22T05:02:18;17.40;99.90
45409;DHT22;31162;51.076;3.784;2022-07-22T05:04:44;17.60;99.90
45409;DHT22;31162;51.076;3.784;2022-07-22T05:07:10;17.90;99.90
45409;DHT22;31162;51.076;3.784;2022-07-22T05:09:36;18.20;99.90
45409;DHT22;31162;51.076;3.784;2022-07-22T05:12:02;18.30;99.90
45409;DHT22;31162;51.076;3.784;2022-07-22T05:14:28;18.40;99.90
45409;DHT22;31162;51.076;3.784;2022-07-22T05:16:53;18.40;99.90
45409;DHT22;31162;51.076;3.784;2022-07-22T05:19:19;18.50;99.90
45409;DHT22;31162;51.076;3.784;2022-07-22T05:21:45;18.60;99.90
45409;DHT22;31162;51.076;3.784;2022-07-22T05:24:11;18.80;99.90
45409;DHT22;31162;51.076;3.784;2022-07-22T05:26:37;18.90;99.90
45409;DHT22;31162;51.076;3.784;2022-07-22T05:29:03;19.10;99.90
45409;DHT22;31162;51.076;3.784;2022-07-22T05:31:29;19.10;99.90
45409;DHT22;31162;51.076;3.784;2022-07-22T05:33:55;19.30;99.90
45409;DHT22;31162;51.076;3.784;2022-07-22T05:36:20;19.50;99.90
45409;DHT22;31162;51.076;3.784;2022-07-22T05:38:46;19.70;99.90
45409;DHT22;31162;51.076;3.784;2022-07-22T05:41:12;19.70;99.90
45409;DHT22;31162;51.076;3.784;2022-07-22T05:43:37;19.60;99.90
45409;DHT22;31162;51.076;3.784;2022-07-22T05:46:03;19.40;99.90
45409;DHT22;31162;51.076;3.784;2022-07-22T05:48:29;19.30;99.90
45409;DHT22;31162;51.076;3.784;2022-07-22T05:50:54;19.30;99.90
45409;DHT22;31162;51.076;3.784;2022-07-22T05:53:20;19.30;99.90
45409;DHT22;31162;51.076;3.784;2022-07-22T05:55:46;19.40;99.90
45409;DHT22;31162;51.076;3.784;2022-07-22T05:58:11;19.70;99.90
45409;DHT22;31162;51.076;3.784;2022-07-22T06:00:37;19.90;99.90
45409;DHT22;31162;51.076;3.784;2022-07-22T06:03:04;20.00;99.90
45409;DHT22;31162;51.076;3.784;2022-07-22T06:05:30;20.10;99.90
45409;DHT22;31162;51.076;3.784;2022-07-22T06:07:56;20.40;99.90
45409;DHT22;31162;51.076;3.784;2022-07-22T06:10:21;20.60;99.90
45409;DHT22;31162;51.076;3.784;2022-07-22T06:12:47;20.90;99.90
45409;DHT22;31162;51.076;3.784;2022-07-22T06:15:13;21.10;99.90
45409;DHT22;31162;51.076;3.784;2022-07-22T06:17:38;21.30;99.90
45409;DHT22;31162;51.076;3.784;2022-07-22T06:20:04;21.40;99.90
45409;DHT22;31162;51.076;3.784;2022-07-22T06:22:30;21.50;99.90
45409;DHT22;31162;51.076;3.784;2022-07-22T06:24:56;21.80;99.90
45409;DHT22;31162;51.076;3.784;2022-07-22T06:27:21;22.20;99.90
45409;DHT22;31162;51.076;3.784;2022-07-22T06:29:47;22.20;99.90
45409;DHT22;31162;51.076;3.784;2022-07-22T06:32:13;22.40;99.90
45409;DHT22;31162;51.076;3.784;2022-07-22T06:34:38;22.70;99.90
45409;DHT22;31162;51.076;3.784;2022-07-22T06:37:04;23.10;99.90
45409;DHT22;31162;51.076;3.784;2022-07-22T06:39:30;23.90;99.90
45409;DHT22;31162;51.076;3.784;2022-07-22T06:41:56;24.30;99.90
45409;DHT22;31162;51.076;3.784;2022-07-22T06:44:21;24.80;99.90
45409;DHT22;31162;51.076;3.784;2022-07-22T06:46:47;25.30;99.90
45409;DHT22;31162;51.076;3.784;2022-07-22T06:49:13;25.40;99.90
45409;DHT22;31162;51.076;3.784;2022-07-22T06:51:38;25.30;99.90
45409;DHT22;31162;51.076;3.784;2022-07-22T06:54:04;25.30;99.90
45409;DHT22;31162;51.076;3.784;2022-07-22T06:56:30;25.30;99.90
45409;DHT22;31162;51.076;3.784;2022-07-22T06:58:55;25.30;99.90
45409;DHT22;31162;51.076;3.784;2022-07-22T07:01:21;26.00;99.90
45409;DHT22;31162;51.076;3.784;2022-07-22T07:03:47;27.00;99.90
45409;DHT22;31162;51.076;3.784;2022-07-22T07:06:12;27.30;99.90
45409;DHT22;31162;51.076;3.784;2022-07-22T07:08:39;27.90;99.90
45409;DHT22;31162;51.076;3.784;2022-07-22T07:11:05;27.90;99.20
45409;DHT22;31162;51.076;3.784;2022-07-22T07:13:31;28.00;99.20
45409;DHT22;31162;51.076;3.784;2022-07-22T07:15:57;28.70;98.50
45409;DHT22;31162;51.076;3.784;2022-07-22T07:18:23;30.20;94.30
45409;DHT22;31162;51.076;3.784;2022-07-22T07:20:48;28.30;94.50
45409;DHT22;31162;51.076;3.784;2022-07-22T07:23:14;27.00;96.60
45409;DHT22;31162;51.076;3.784;2022-07-22T07:25:40;27.70;96.80
45409;DHT22;31162;51.076;3.784;2022-07-22T07:28:06;28.80;94.60
45409;DHT22;31162;51.076;3.784;2022-07-22T07:30:32;28.10;94.70
45409;DHT22;31162;51.076;3.784;2022-07-22T07:32:57;27.30;95.40
45409;DHT22;31162;51.076;3.784;2022-07-22T07:35:26;28.40;95.50
45409;DHT22;31162;51.076;3.784;2022-07-22T07:37:52;29.60;94.30
45409;DHT22;31162;51.076;3.784;2022-07-22T07:40:18;30.10;92.00
45409;DHT22;31162;51.076;3.784;2022-07-22T07:42:43;30.10;92.20
45409;DHT22;31162;51.076;3.784;2022-07-22T07:45:09;29.40;91.80
45409;DHT22;31162;51.076;3.784;2022-07-22T07:47:35;28.50;91.90
45409;DHT22;31162;51.076;3.784;2022-07-22T07:50:00;26.50;94.50
45409;DHT22;31162;51.076;3.784;2022-07-22T07:52:28;25.30;96.20
45409;DHT22;31162;51.076;3.784;2022-07-22T07:54:53;25.50;96.60
45409;DHT22;31162;51.076;3.784;2022-07-22T07:57:21;26.20;97.00
45409;DHT22;31162;51.076;3.784;2022-07-22T07:59:46;26.90;95.70
45409;DHT22;31162;51.076;3.784;2022-07-22T08:02:12;29.30;93.70
45409;DHT22;31162;51.076;3.784;2022-07-22T08:04:38;32.60;90.50
45409;DHT22;31162;51.076;3.784;2022-07-22T08:07:04;34.00;85.50
45409;DHT22;31162;51.076;3.784;2022-07-22T08:09:30;31.70;86.40
45409;DHT22;31162;51.076;3.784;2022-07-22T08:11:56;32.60;86.40
45409;DHT22;31162;51.076;3.784;2022-07-22T08:14:22;33.70;82.60
45409;DHT22;31162;51.076;3.784;2022-07-22T08:16:49;34.70;79.20
45409;DHT22;31162;51.076;3.784;2022-07-22T08:19:15;34.50;77.70
45409;DHT22;31162;51.076;3.784;2022-07-22T08:21:40;33.00;80.40
45409;DHT22;31162;51.076;3.784;2022-07-22T08:24:09;31.90;81.50
45409;DHT22;31162;51.076;3.784;2022-07-22T08:26:35;31.30;82.10
45409;DHT22;31162;51.076;3.784;2022-07-22T08:29:01;28.70;84.90
45409;DHT22;31162;51.076;3.784;2022-07-22T08:31:30;29.00;84.80
45409;DHT22;31162;51.076;3.784;2022-07-22T08:34:00;30.50;82.40
45409;DHT22;31162;51.076;3.784;2022-07-22T08:36:26;30.40;83.00
45409;DHT22;31162;51.076;3.784;2022-07-22T08:38:52;28.70;83.10
45409;DHT22;31162;51.076;3.784;2022-07-22T08:41:18;26.40;89.10
45409;DHT22;31162;51.076;3.784;2022-07-22T08:43:48;26.50;90.30
45409;DHT22;31162;51.076;3.784;2022-07-22T08:46:14;26.40;90.20
45409;DHT22;31162;51.076;3.784;2022-07-22T08:48:39;26.10;90.00
45409;DHT22;31162;51.076;3.784;2022-07-22T08:51:06;25.30;91.00
45409;DHT22;31162;51.076;3.784;2022-07-22T08:53:32;25.50;91.40
45409;DHT22;31162;51.076;3.784;2022-07-22T08:55:58;25.00;91.70
45409;DHT22;31162;51.076;3.784;2022-07-22T08:58:25;25.40;92.30
45409;DHT22;31162;51.076;3.784;2022-07-22T09:01:11;26.30;91.70
45409;DHT22;31162;51.076;3.784;2022-07-22T09:03:55;26.00;91.10
45409;DHT22;31162;51.076;3.784;2022-07-22T09:06:25;26.30;91.40
45409;DHT22;31162;51.076;3.784;2022-07-22T09:09:00;27.00;91.00
45409;DHT22;31162;51.076;3.784;2022-07-22T09:11:28;26.60;90.70
45409;DHT22;31162;51.076;3.784;2022-07-22T09:13:58;26.40;90.70
45409;DHT22;31162;51.076;3.784;2022-07-22T09:16:51;26.30;91.60
45409;DHT22;31162;51.076;3.784;2022-07-22T09:19:31;26.60;91.90
45409;DHT22;31162;51.076;3.784;2022-07-22T09:21:58;27.40;91.10
45409;DHT22;31162;51.076;3.784;2022-07-22T09:24:31;28.30;88.60
45409;DHT22;31162;51.076;3.784;2022-07-22T09:26:57;29.20;87.10
45409;DHT22;31162;51.076;3.784;2022-07-22T09:29:34;29.60;86.20
45409;DHT22;31162;51.076;3.784;2022-07-22T09:32:00;30.60;85.70
45409;DHT22;31162;51.076;3.784;2022-07-22T09:34:31;31.50;83.10
45409;DHT22;31162;51.076;3.784;2022-07-22T09:37:00;31.10;81.60
45409;DHT22;31162;51.076;3.784;2022-07-22T09:39:26;30.70;83.00
45409;DHT22;31162;51.076;3.784;2022-07-22T09:42:00;31.00;81.50
45409;DHT22;31162;51.076;3.784;2022-07-22T09:44:26;31.10;82.40
45409;DHT22;31162;51.076;3.784;2022-07-22T09:46:52;33.00;79.80
45409;DHT22;31162;51.076;3.784;2022-07-22T09:49:35;34.30;78.70
45409;DHT22;31162;51.076;3.784;2022-07-22T09:52:07;34.40;76.20
45409;DHT22;31162;51.076;3.784;2022-07-22T09:54:35;32.90;75.70
45409;DHT22;31162;51.076;3.784;2022-07-22T09:57:02;33.20;76.80
45409;DHT22;31162;51.076;3.784;2022-07-22T09:59:28;33.20;77.50
45409;DHT22;31162;51.076;3.784;2022-07-22T10:01:55;33.60;76.70
45409;DHT22;31162;51.076;3.784;2022-07-22T10:04:24;32.90;76.70
45409;DHT22;31162;51.076;3.784;2022-07-22T10:06:51;32.70;77.50
45409;DHT22;31162;51.076;3.784;2022-07-22T10:09:21;32.50;77.00
45409;DHT22;31162;51.076;3.784;2022-07-22T10:11:47;32.40;77.00
45409;DHT22;31162;51.076;3.784;2022-07-22T10:14:14;32.80;77.00
45409;DHT22;31162;51.076;3.784;2022-07-22T10:16:43;33.50;75.20
45409;DHT22;31162;51.076;3.784;2022-07-22T10:19:10;33.90;74.10
45409;DHT22;31162;51.076;3.784;2022-07-22T10:21:35;34.30;74.20
45409;DHT22;31162;51.076;3.784;2022-07-22T10:24:21;35.00;74.00
45409;DHT22;31162;51.076;3.784;2022-07-22T10:26:56;34.80;72.40
45409;DHT22;31162;51.076;3.784;2022-07-22T10:29:39;35.00;71.00
45409;DHT22;31162;51.076;3.784;2022-07-22T10:32:22;34.10;72.30
45409;DHT22;31162;51.076;3.784;2022-07-22T10:40:23;31.80;77.50
45409;DHT22;31162;51.076;3.784;2022-07-22T10:43:02;32.60;75.30
45409;DHT22;31162;51.076;3.784;2022-07-22T10:46:09;32.70;74.20
45409;DHT22;31162;51.076;3.784;2022-07-22T10:56:28;31.30;76.00
45409;DHT22;31162;51.076;3.784;2022-07-22T10:59:14;30.60;78.20
45409;DHT22;31162;51.076;3.784;2022-07-22T11:01:47;30.90;78.00
45409;DHT22;31162;51.076;3.784;2022-07-22T11:04:25;31.80;76.90
45409;DHT22;31162;51.076;3.784;2022-07-22T11:06:53;32.20;75.80
45409;DHT22;31162;51.076;3.784;2022-07-22T11:09:23;31.80;78.00
45409;DHT22;31162;51.076;3.784;2022-07-22T11:11:55;31.30;75.50
45409;DHT22;31162;51.076;3.784;2022-07-22T11:14:30;30.10;78.30
45409;DHT22;31162;51.076;3.784;2022-07-22T11:17:04;30.70;77.70
45409;DHT22;31162;51.076;3.784;2022-07-22T11:19:30;30.60;79.50
45409;DHT22;31162;51.076;3.784;2022-07-22T11:22:07;31.10;76.60
45409;DHT22;31162;51.076;3.784;2022-07-22T11:24:34;31.40;78.40
45409;DHT22;31162;51.076;3.784;2022-07-22T11:27:02;32.00;77.30
45409;DHT22;31162;51.076;3.784;2022-07-22T11:29:36;32.50;77.30
45409;DHT22;31162;51.076;3.784;2022-07-22T11:32:05;32.60;75.50
45409;DHT22;31162;51.076;3.784;2022-07-22T11:34:31;32.30;75.60
45409;DHT22;31162;51.076;3.784;2022-07-22T11:36:58;31.80;75.10
45409;DHT22;31162;51.076;3.784;2022-07-22T11:39:28;31.10;76.30
45409;DHT22;31162;51.076;3.784;2022-07-22T11:41:56;30.70;77.10
45409;DHT22;31162;51.076;3.784;2022-07-22T11:44:26;30.50;76.70
45409;DHT22;31162;51.076;3.784;2022-07-22T11:46:52;29.60;77.70
45409;DHT22;31162;51.076;3.784;2022-07-22T11:49:20;29.40;78.80
45409;DHT22;31162;51.076;3.784;2022-07-22T11:51:46;29.70;78.60
45409;DHT22;31162;51.076;3.784;2022-07-22T11:54:13;30.10;79.60
45409;DHT22;31162;51.076;3.784;2022-07-22T11:56:39;30.40;78.60
45409;DHT22;31162;51.076;3.784;2022-07-22T11:59:06;30.00;78.40
45409;DHT22;31162;51.076;3.784;2022-07-22T12:01:34;29.00;79.70
45409;DHT22;31162;51.076;3.784;2022-07-22T12:04:03;29.30;81.50
45409;DHT22;31162;51.076;3.784;2022-07-22T12:06:30;29.90;80.60
45409;DHT22;31162;51.076;3.784;2022-07-22T12:09:13;30.20;79.00
45409;DHT22;31162;51.076;3.784;2022-07-22T12:11:42;30.90;79.00
45409;DHT22;31162;51.076;3.784;2022-07-22T12:14:10;31.40;77.60
45409;DHT22;31162;51.076;3.784;2022-07-22T12:16:38;31.30;77.80
45409;DHT22;31162;51.076;3.784;2022-07-22T12:19:09;31.10;77.70
45409;DHT22;31162;51.076;3.784;2022-07-22T12:21:59;31.40;78.30
45409;DHT22;31162;51.076;3.784;2022-07-22T12:27:18;30.10;77.80
45409;DHT22;31162;51.076;3.784;2022-07-22T12:29:48;30.30;78.40
45409;DHT22;31162;51.076;3.784;2022-07-22T12:32:24;30.70;78.20
45409;DHT22;31162;51.076;3.784;2022-07-22T12:37:27;31.10;78.70
45409;DHT22;31162;51.076;3.784;2022-07-22T12:42:23;31.20;77.00
45409;DHT22;31162;51.076;3.784;2022-07-22T12:44:53;31.20;77.70
45409;DHT22;31162;51.076;3.784;2022-07-22T12:47:48;31.30;76.40
45409;DHT22;31162;51.076;3.784;2022-07-22T12:50:31;30.10;78.80
45409;DHT22;31162;51.076;3.784;2022-07-22T12:53:09;30.50;79.20
45409;DHT22;31162;51.076;3.784;2022-07-22T12:55:45;30.70;78.90
45409;DHT22;31162;51.076;3.784;2022-07-22T12:58:12;30.50;78.00
45409;DHT22;31162;51.076;3.784;2022-07-22T13:00:40;31.00;78.10
45409;DHT22;31162;51.076;3.784;2022-07-22T13:03:06;30.90;77.70
45409;DHT22;31162;51.076;3.784;2022-07-22T13:05:32;30.80;78.30
45409;DHT22;31162;51.076;3.784;2022-07-22T13:08:00;31.10;77.60
45409;DHT22;31162;51.076;3.784;2022-07-22T13:10:26;30.90;78.50
45409;DHT22;31162;51.076;3.784;2022-07-22T13:12:53;31.10;77.40
45409;DHT22;31162;51.076;3.784;2022-07-22T13:15:19;31.20;77.90
45409;DHT22;31162;51.076;3.784;2022-07-22T13:17:46;31.40;76.90
45409;DHT22;31162;51.076;3.784;2022-07-22T13:20:13;31.70;78.20
45409;DHT22;31162;51.076;3.784;2022-07-22T13:22:39;31.60;77.10
45409;DHT22;31162;51.076;3.784;2022-07-22T13:25:06;31.30;77.40
45409;DHT22;31162;51.076;3.784;2022-07-22T13:27:32;29.90;78.20
45409;DHT22;31162;51.076;3.784;2022-07-22T13:29:58;28.80;82.50
45409;DHT22;31162;51.076;3.784;2022-07-22T13:32:23;28.90;80.60
45409;DHT22;31162;51.076;3.784;2022-07-22T13:34:49;27.70;82.60
45409;DHT22;31162;51.076;3.784;2022-07-22T13:37:15;26.80;84.80
45409;DHT22;31162;51.076;3.784;2022-07-22T13:39:41;27.20;86.00
45409;DHT22;31162;51.076;3.784;2022-07-22T13:42:07;28.10;83.80
45409;DHT22;31162;51.076;3.784;2022-07-22T13:44:33;28.60;83.20
45409;DHT22;31162;51.076;3.784;2022-07-22T13:47:01;29.10;83.50
45409;DHT22;31162;51.076;3.784;2022-07-22T13:49:27;29.40;82.40
45409;DHT22;31162;51.076;3.784;2022-07-22T13:51:52;29.60;80.80
45409;DHT22;31162;51.076;3.784;2022-07-22T13:54:19;29.50;80.70
45409;DHT22;31162;51.076;3.784;2022-07-22T13:56:45;29.80;80.90
45409;DHT22;31162;51.076;3.784;2022-07-22T13:59:13;29.80;80.60
45409;DHT22;31162;51.076;3.784;2022-07-22T14:01:38;29.70;80.60
45409;DHT22;31162;51.076;3.784;2022-07-22T14:04:04;30.00;80.00
45409;DHT22;31162;51.076;3.784;2022-07-22T14:06:32;29.50;80.50
45409;DHT22;31162;51.076;3.784;2022-07-22T14:08:58;29.10;82.00
45409;DHT22;31162;51.076;3.784;2022-07-22T14:11:23;28.30;83.90
45409;DHT22;31162;51.076;3.784;2022-07-22T14:13:49;28.30;83.40
45409;DHT22;31162;51.076;3.784;2022-07-22T14:16:15;28.30;84.00
45409;DHT22;31162;51.076;3.784;2022-07-22T14:19:10;28.40;83.40
45409;DHT22;31162;51.076;3.784;2022-07-22T14:21:37;28.40;84.10
45409;DHT22;31162;51.076;3.784;2022-07-22T14:24:05;28.30;83.10
45409;DHT22;31162;51.076;3.784;2022-07-22T14:26:31;28.10;84.20
45409;DHT22;31162;51.076;3.784;2022-07-22T14:28:56;27.80;83.60
45409;DHT22;31162;51.076;3.784;2022-07-22T14:31:22;27.80;85.40
45409;DHT22;31162;51.076;3.784;2022-07-22T14:33:48;28.10;84.70
45409;DHT22;31162;51.076;3.784;2022-07-22T14:36:14;28.00;85.20
45409;DHT22;31162;51.076;3.784;2022-07-22T14:38:40;27.90;84.20
45409;DHT22;31162;51.076;3.784;2022-07-22T14:41:05;27.60;84.90
45409;DHT22;31162;51.076;3.784;2022-07-22T14:43:36;27.60;85.30
45409;DHT22;31162;51.076;3.784;2022-07-22T14:46:03;27.60;85.00
45409;DHT22;31162;51.076;3.784;2022-07-22T14:48:30;27.50;85.30
45409;DHT22;31162;51.076;3.784;2022-07-22T14:50:56;27.30;85.10
45409;DHT22;31162;51.076;3.784;2022-07-22T14:53:22;27.20;85.90
45409;DHT22;31162;51.076;3.784;2022-07-22T14:55:49;27.10;86.50
45409;DHT22;31162;51.076;3.784;2022-07-22T14:58:15;27.00;86.90
45409;DHT22;31162;51.076;3.784;2022-07-22T15:00:40;26.80;86.30
45409;DHT22;31162;51.076;3.784;2022-07-22T15:03:06;26.60;86.30
45409;DHT22;31162;51.076;3.784;2022-07-22T15:05:32;26.40;87.90
45409;DHT22;31162;51.076;3.784;2022-07-22T15:07:57;26.10;88.30
45409;DHT22;31162;51.076;3.784;2022-07-22T15:10:23;26.00;88.00
45409;DHT22;31162;51.076;3.784;2022-07-22T15:12:49;26.20;87.90
45409;DHT22;31162;51.076;3.784;2022-07-22T15:15:14;26.30;89.10
45409;DHT22;31162;51.076;3.784;2022-07-22T15:17:40;26.30;88.90
45409;DHT22;31162;51.076;3.784;2022-07-22T15:20:06;26.40;89.00
45409;DHT22;31162;51.076;3.784;2022-07-22T15:22:33;26.50;88.10
45409;DHT22;31162;51.076;3.784;2022-07-22T15:24:59;26.50;89.10
45409;DHT22;31162;51.076;3.784;2022-07-22T15:27:25;26.30;87.90
45409;DHT22;31162;51.076;3.784;2022-07-22T15:29:51;26.00;89.70
45409;DHT22;31162;51.076;3.784;2022-07-22T15:32:17;25.90;89.00
45409;DHT22;31162;51.076;3.784;2022-07-22T15:34:43;25.80;89.50
45409;DHT22;31162;51.076;3.784;2022-07-22T15:37:09;25.70;90.20
45409;DHT22;31162;51.076;3.784;2022-07-22T15:39:35;25.50;90.20
45409;DHT22;31162;51.076;3.784;2022-07-22T15:42:01;25.10;90.80
45409;DHT22;31162;51.076;3.784;2022-07-22T15:44:27;24.90;91.40
45409;DHT22;31162;51.076;3.784;2022-07-22T15:46:53;24.80;92.40
45409;DHT22;31162;51.076;3.784;2022-07-22T15:49:23;24.40;93.90
45409;DHT22;31162;51.076;3.784;2022-07-22T15:51:49;23.90;95.30